Jack northrop Field Hawthorne Municipal Airport Hawthorne US
ICAO: KHHR
IATA: HHR
Category: Medium
Scheduled Services: No

Elevation: 66 ft
TransAlt. 18000 ft.

Airport Communications:
SOCAL APP:124.3
ATIS:118.4
CTAF:121.1
SOCAL DEP:124.3
GND:125.1
HAWTHORNE RDO:122.2
TWR:121.1

KHHR Zoom In..

Runways:

(A) RW 07 length 4956 ft width 100 ft
LOC 109.10 / hdg 73

(B) RW 25 length 4956 ft width 100 ft
LOC 109.10 / hdg 253

Location; KHHR
Day. 23 / Time. 14.53 Zulu
* Altimeter: 30.14
* Temperature: 10° c. 50°f.
* Wind from: 000° Speed 00 kn.
Dewpoint: -02° c.
Visibility: 10 Statute Miles.
Clouds: Clear (automated report).

KHHR 231453Z 00000KT 10SM CLR 10/M02 A3014 RMK AO2 SLP207 T01001017 53001


Wind - Calm.

YouTube Music Video
 
jpsmedia.com for Web Design  worldairports.se 2018   terms of use